createdAt,value
2018-05-18T00:01:15.196Z,5.43
2018-05-18T00:04:18.633Z,4.17
2018-05-18T00:07:21.309Z,5.37
2018-05-18T00:10:24.110Z,4.90
2018-05-18T00:13:26.795Z,5.03
2018-05-18T00:16:29.511Z,5.53
2018-05-18T00:19:32.254Z,4.50
2018-05-18T00:22:35.293Z,4.30
2018-05-18T00:25:38.090Z,4.47
2018-05-18T00:28:40.797Z,4.47
2018-05-18T00:31:44.521Z,4.77
2018-05-18T00:34:47.205Z,4.40
2018-05-18T00:37:50.686Z,3.77
2018-05-18T00:40:54.076Z,4.80
2018-05-18T00:43:58.003Z,6.00
2018-05-18T00:47:01.507Z,5.27
2018-05-18T00:50:04.878Z,5.20
2018-05-18T00:53:07.873Z,4.70
2018-05-18T00:56:10.513Z,5.67
2018-05-18T00:59:13.339Z,5.93
2018-05-18T01:02:15.907Z,4.90
2018-05-18T01:05:18.611Z,5.17
2018-05-18T01:08:21.382Z,5.23
2018-05-18T01:11:24.017Z,5.90
2018-05-18T01:14:26.713Z,7.87
2018-05-18T01:17:30.439Z,5.07
2018-05-18T01:20:33.084Z,5.67
2018-05-18T01:23:35.650Z,4.50
2018-05-18T01:26:39.137Z,7.67
2018-05-18T01:29:42.068Z,4.40
2018-05-18T01:32:45.435Z,5.63
2018-05-18T01:35:48.074Z,4.90
2018-05-18T01:38:50.773Z,7.80
2018-05-18T01:41:53.395Z,5.30
2018-05-18T01:44:55.958Z,4.13
2018-05-18T01:47:58.555Z,5.60
2018-05-18T01:51:01.142Z,3.87
2018-05-18T01:54:04.552Z,4.57
2018-05-18T01:57:07.337Z,5.77
2018-05-18T02:00:10.712Z,4.90
2018-05-18T02:03:13.296Z,3.90
2018-05-18T02:06:16.229Z,4.43
2018-05-18T02:09:18.989Z,8.00
2018-05-18T02:12:21.591Z,4.83
2018-05-18T02:15:24.205Z,4.00
2018-05-18T02:18:26.769Z,4.37
2018-05-18T02:21:29.352Z,7.30
2018-05-18T02:24:31.941Z,4.70
2018-05-18T02:27:34.515Z,4.43
2018-05-18T02:30:37.129Z,4.73
2018-05-18T02:33:39.729Z,4.60
2018-05-18T02:36:42.399Z,4.13
2018-05-18T02:39:44.992Z,3.63
2018-05-18T02:42:47.617Z,4.30
2018-05-18T02:45:50.224Z,4.77
2018-05-18T02:48:52.809Z,4.27
2018-05-18T02:51:55.387Z,4.93
2018-05-18T02:54:57.983Z,5.03
2018-05-18T02:58:00.564Z,4.20
2018-05-18T03:01:03.220Z,4.50
2018-05-18T03:04:05.807Z,7.00
2018-05-18T03:07:08.393Z,4.53
2018-05-18T03:10:11.746Z,9.07
2018-05-18T03:13:15.128Z,3.60
2018-05-18T03:16:17.716Z,5.83
2018-05-18T03:19:21.196Z,5.43
2018-05-18T03:22:23.737Z,4.83
2018-05-18T03:25:26.372Z,6.20
2018-05-18T03:28:28.961Z,6.00
2018-05-18T03:31:31.587Z,3.40
2018-05-18T03:34:34.151Z,3.63
2018-05-18T03:37:36.763Z,3.87
2018-05-18T03:40:39.331Z,5.90
2018-05-18T03:43:41.908Z,5.40
2018-05-18T03:46:44.485Z,5.63
2018-05-18T03:49:48.285Z,4.17
2018-05-18T03:52:50.964Z,4.77
2018-05-18T03:55:54.354Z,4.33
2018-05-18T03:58:56.930Z,6.10
2018-05-18T04:02:11.367Z,4.53
2018-05-18T04:05:25.799Z,4.80
2018-05-18T04:08:52.231Z,5.53
2018-05-18T04:11:54.830Z,4.43
2018-05-18T04:14:57.444Z,4.40
2018-05-18T04:18:00.068Z,5.60
2018-05-18T04:21:02.749Z,5.70
2018-05-18T04:24:05.445Z,5.10
2018-05-18T04:27:08.029Z,5.20
2018-05-18T04:30:10.747Z,6.30
2018-05-18T04:33:14.090Z,5.03
2018-05-18T04:36:16.768Z,5.13
2018-05-18T04:39:19.386Z,5.90
2018-05-18T04:42:22.035Z,4.87
2018-05-18T04:45:24.663Z,6.80
2018-05-18T04:48:27.260Z,4.87
2018-05-18T04:51:30.203Z,5.90
2018-05-18T04:54:32.767Z,6.17
2018-05-18T04:57:36.152Z,6.33
2018-05-18T05:00:38.752Z,6.40
2018-05-18T05:03:42.086Z,5.83
2018-05-18T05:06:44.706Z,5.33
2018-05-18T05:09:47.297Z,11.00
2018-05-18T05:12:49.861Z,6.60
2018-05-18T05:15:52.454Z,5.03
2018-05-18T05:18:55.054Z,7.03
2018-05-18T05:21:58.484Z,4.93
2018-05-18T05:25:01.099Z,5.93
2018-05-18T05:28:03.765Z,7.27
2018-05-18T05:31:06.656Z,5.00
2018-05-18T05:34:09.330Z,7.17
2018-05-18T05:37:13.958Z,10.37
2018-05-18T05:40:17.546Z,5.43
2018-05-18T05:43:20.134Z,9.03
2018-05-18T05:46:23.016Z,5.13
2018-05-18T05:49:25.599Z,10.40
2018-05-18T05:52:28.336Z,4.70
2018-05-18T05:55:30.973Z,4.93
2018-05-18T05:58:34.414Z,5.80
2018-05-18T06:01:38.417Z,4.80
2018-05-18T06:04:41.038Z,8.83
2018-05-18T06:07:44.418Z,7.50
2018-05-18T06:10:47.973Z,6.53
2018-05-18T06:13:50.634Z,6.73
2018-05-18T06:16:54.091Z,6.23
2018-05-18T06:19:56.790Z,6.20
2018-05-18T06:22:59.511Z,9.57
2018-05-18T06:26:02.805Z,8.98
2018-05-18T06:29:05.398Z,9.87
2018-05-18T06:32:08.007Z,5.57
2018-05-18T06:35:10.729Z,5.83
2018-05-18T06:38:14.455Z,6.40
2018-05-18T06:41:17.935Z,6.13
2018-05-18T06:44:20.598Z,5.37
2018-05-18T06:47:23.201Z,5.60
2018-05-18T06:50:25.815Z,6.13
2018-05-18T06:53:29.187Z,5.90
2018-05-18T06:56:31.769Z,10.30
2018-05-18T06:59:34.429Z,6.73
2018-05-18T07:02:37.077Z,6.03
2018-05-18T07:05:39.903Z,5.43
2018-05-18T07:08:44.678Z,6.93
2018-05-18T07:11:47.313Z,7.03
2018-05-18T07:14:49.925Z,5.50
2018-05-18T07:17:53.300Z,5.40
2018-05-18T07:20:55.912Z,4.73
2018-05-18T07:23:58.697Z,5.03
2018-05-18T07:27:01.396Z,5.37
2018-05-18T07:30:05.120Z,5.43
2018-05-18T07:33:07.739Z,7.23
2018-05-18T07:36:10.373Z,8.00
2018-05-18T07:39:13.044Z,5.23
2018-05-18T07:42:16.498Z,5.30
2018-05-18T07:45:19.523Z,5.60
2018-05-18T07:48:22.144Z,5.83
2018-05-18T07:51:24.787Z,6.40
2018-05-18T07:54:27.399Z,5.53
2018-05-18T07:57:30.035Z,6.07
2018-05-18T08:00:32.695Z,6.27
2018-05-18T08:03:38.008Z,5.63
2018-05-18T08:06:41.366Z,5.50
2018-05-18T08:09:43.970Z,5.27
2018-05-18T08:12:46.568Z,6.07
2018-05-18T08:15:49.154Z,6.37
2018-05-18T08:18:52.552Z,6.77
2018-05-18T08:21:55.190Z,5.90
2018-05-18T08:24:57.808Z,6.57
2018-05-18T08:28:01.335Z,6.37
2018-05-18T08:31:07.863Z,4.83
2018-05-18T08:34:10.478Z,5.37
2018-05-18T08:37:13.122Z,5.73
2018-05-18T08:40:15.711Z,5.57
2018-05-18T08:43:19.095Z,6.13
2018-05-18T08:46:21.728Z,6.63
2018-05-18T08:49:25.082Z,6.90
2018-05-18T08:52:27.716Z,7.40
2018-05-18T08:55:31.157Z,6.20
2018-05-18T08:58:33.830Z,6.13
2018-05-18T09:01:36.619Z,7.67
2018-05-18T09:04:40.379Z,6.00
2018-05-18T09:07:43.807Z,5.70
2018-05-18T09:10:46.462Z,5.73
2018-05-18T09:13:49.061Z,5.93
2018-05-18T09:16:51.693Z,5.93
2018-05-18T09:19:58.171Z,5.97
2018-05-18T09:23:05.435Z,5.77
2018-05-18T09:26:08.101Z,6.30
2018-05-18T09:29:10.668Z,8.60
2018-05-18T09:32:13.251Z,5.57
2018-05-18T09:35:16.625Z,6.30
2018-05-18T09:38:19.206Z,6.37
2018-05-18T09:41:21.767Z,8.17
2018-05-18T09:44:24.366Z,5.90
2018-05-18T09:47:26.963Z,6.53
2018-05-18T09:50:31.827Z,5.80
2018-05-18T09:53:34.422Z,5.97
2018-05-18T09:56:36.984Z,6.00
2018-05-18T09:59:39.614Z,5.90
2018-05-18T10:02:42.178Z,6.50
2018-05-18T10:05:44.766Z,6.93
2018-05-18T10:08:47.349Z,6.37
2018-05-18T10:11:49.982Z,7.60
2018-05-18T10:14:52.719Z,5.90
2018-05-18T10:17:56.140Z,5.90
2018-05-18T10:20:58.767Z,6.33
2018-05-18T10:24:01.350Z,6.30
2018-05-18T10:27:03.928Z,7.30
2018-05-18T10:30:06.771Z,7.17
2018-05-18T10:33:10.183Z,6.73
2018-05-18T10:36:12.908Z,4.80
2018-05-18T10:39:15.513Z,5.17
2018-05-18T10:42:18.170Z,5.37
2018-05-18T10:45:20.792Z,5.00
2018-05-18T10:48:24.810Z,4.80
2018-05-18T10:51:27.675Z,5.00
2018-05-18T10:54:30.615Z,5.17
2018-05-18T10:57:33.193Z,6.57
2018-05-18T11:00:35.916Z,5.70
2018-05-18T11:03:38.548Z,5.80
2018-05-18T11:06:41.131Z,6.00
2018-05-18T11:09:44.677Z,4.90
2018-05-18T11:12:47.298Z,5.40
2018-05-18T11:15:49.899Z,6.33
2018-05-18T11:18:52.500Z,6.27
2018-05-18T11:21:55.100Z,6.37
2018-05-18T11:24:58.560Z,6.37
2018-05-18T11:28:01.230Z,6.57
2018-05-18T11:31:04.013Z,5.70
2018-05-18T11:34:06.707Z,8.23
2018-05-18T11:37:09.412Z,4.97
2018-05-18T11:40:11.999Z,5.63
2018-05-18T11:43:14.575Z,6.17
2018-05-18T11:46:17.170Z,6.03
2018-05-18T11:49:20.543Z,7.80
2018-05-18T11:52:23.175Z,5.40
2018-05-18T11:55:25.768Z,5.93
2018-05-18T11:58:28.404Z,5.97
2018-05-18T12:01:31.113Z,6.10
2018-05-18T12:04:33.767Z,6.23
2018-05-18T12:07:36.402Z,6.00
2018-05-18T12:10:39.047Z,7.00
2018-05-18T12:13:42.483Z,7.03
2018-05-18T12:16:45.063Z,5.70
2018-05-18T12:19:47.644Z,6.37
2018-05-18T12:22:50.268Z,5.67
2018-05-18T12:25:52.856Z,6.17
2018-05-18T12:28:55.716Z,5.30
2018-05-18T12:31:58.340Z,7.23
2018-05-18T12:35:00.964Z,6.70
2018-05-18T12:38:03.649Z,10.50
2018-05-18T12:41:06.316Z,6.10
2018-05-18T12:44:08.928Z,5.37
2018-05-18T12:47:11.555Z,7.20
2018-05-18T12:50:14.170Z,6.30
2018-05-18T12:53:16.945Z,6.70
2018-05-18T12:56:20.662Z,6.60
2018-05-18T12:59:24.238Z,5.60
2018-05-18T13:02:26.782Z,5.43
2018-05-18T13:05:29.399Z,5.40
2018-05-18T13:08:32.770Z,8.17
2018-05-18T13:11:35.348Z,6.20
2018-05-18T13:14:37.942Z,6.10
2018-05-18T13:17:40.531Z,5.90
2018-05-18T13:20:43.131Z,6.27
2018-05-18T13:23:46.482Z,7.20
2018-05-18T13:26:49.154Z,6.07
2018-05-18T13:29:51.881Z,5.90
2018-05-18T13:32:54.515Z,6.03
2018-05-18T13:35:57.097Z,7.00
2018-05-18T13:38:59.785Z,6.00
2018-05-18T13:42:03.207Z,5.60
2018-05-18T13:45:05.983Z,6.53
2018-05-18T13:48:08.527Z,6.03
2018-05-18T13:51:11.160Z,6.60
2018-05-18T13:54:13.781Z,5.63
2018-05-18T13:57:16.412Z,6.30
2018-05-18T14:00:19.025Z,7.27
2018-05-18T14:03:22.406Z,6.30
2018-05-18T14:06:26.048Z,19.10
2018-05-18T14:09:28.676Z,5.70
2018-05-18T14:12:31.273Z,5.93
2018-05-18T14:15:33.862Z,6.57
2018-05-18T14:18:36.479Z,16.37
2018-05-18T14:21:39.078Z,9.30
2018-05-18T14:24:41.704Z,7.07
2018-05-18T14:27:44.281Z,7.10
2018-05-18T14:30:47.965Z,7.00
2018-05-18T14:33:50.557Z,6.57
2018-05-18T14:36:53.139Z,6.17
2018-05-18T14:39:56.177Z,6.20
2018-05-18T14:42:59.659Z,8.10
2018-05-18T14:46:02.325Z,8.13
2018-05-18T14:49:05.214Z,5.30
2018-05-18T14:52:08.080Z,7.47
2018-05-18T14:55:10.691Z,5.73
2018-05-18T14:58:13.367Z,8.43
2018-05-18T15:01:17.853Z,6.20
2018-05-18T15:04:21.261Z,8.33
2018-05-18T15:07:25.456Z,6.17
2018-05-18T15:10:28.017Z,5.60
2018-05-18T15:13:30.754Z,6.53
2018-05-18T15:16:37.883Z,5.77
2018-05-18T15:19:40.626Z,8.50
2018-05-18T15:22:43.999Z,7.93
2018-05-18T15:25:46.575Z,7.10
2018-05-18T15:28:49.194Z,5.93
2018-05-18T15:31:51.818Z,5.77
2018-05-18T15:34:54.425Z,6.60
2018-05-18T15:37:57.101Z,6.90
2018-05-18T15:40:59.736Z,7.77
2018-05-18T15:44:02.408Z,6.77
2018-05-18T15:47:06.729Z,6.00
2018-05-18T15:50:09.338Z,5.83
2018-05-18T15:53:11.947Z,5.73
2018-05-18T15:56:14.520Z,6.03
2018-05-18T15:59:17.138Z,5.40
2018-05-18T16:02:19.727Z,7.83
2018-05-18T16:05:22.345Z,6.47
2018-05-18T16:08:25.194Z,6.30
2018-05-18T16:11:28.770Z,6.13
2018-05-18T16:14:31.376Z,5.27
2018-05-18T16:17:34.772Z,7.43
2018-05-18T16:20:37.374Z,7.20
2018-05-18T16:23:40.296Z,7.77
2018-05-18T16:26:43.010Z,6.07
2018-05-18T16:29:45.603Z,6.30
2018-05-18T16:32:48.334Z,5.70
2018-05-18T16:35:50.899Z,6.57
2018-05-18T16:38:53.492Z,7.87
2018-05-18T16:41:56.116Z,6.23
2018-05-18T16:44:58.750Z,6.80
2018-05-18T16:48:02.157Z,6.80
2018-05-18T16:51:05.820Z,6.47
2018-05-18T16:54:09.037Z,6.03
2018-05-18T16:57:11.645Z,6.30
2018-05-18T17:00:14.348Z,8.43
2018-05-18T17:03:17.021Z,7.00
2018-05-18T17:06:19.628Z,6.90
2018-05-18T17:09:22.224Z,7.03
2018-05-18T17:12:24.874Z,7.13
2018-05-18T17:15:27.560Z,6.73
2018-05-18T17:18:30.159Z,7.80
2018-05-18T17:21:32.735Z,6.47
2018-05-18T17:24:36.159Z,7.30
2018-05-18T17:27:38.807Z,7.30
2018-05-18T17:30:41.396Z,7.67
2018-05-18T17:33:44.007Z,7.63
2018-05-18T17:36:46.615Z,10.13
2018-05-18T17:39:49.321Z,8.03
2018-05-18T17:42:51.955Z,7.40
2018-05-18T17:45:54.876Z,8.40
2018-05-18T17:48:58.485Z,6.60
2018-05-18T17:52:01.918Z,7.70
2018-05-18T17:55:04.641Z,8.20
2018-05-18T17:58:08.146Z,8.33
2018-05-18T18:01:10.773Z,8.27
2018-05-18T18:04:13.395Z,8.40
2018-05-18T18:07:16.012Z,7.97
2018-05-18T18:10:18.722Z,10.40
2018-05-18T18:13:21.405Z,9.70
2018-05-18T18:16:23.999Z,10.53
2018-05-18T18:19:26.672Z,8.33
2018-05-18T18:22:29.345Z,8.47
2018-05-18T18:25:32.437Z,8.40
2018-05-18T18:28:35.846Z,7.93
2018-05-18T18:31:38.409Z,10.50
2018-05-18T18:34:42.370Z,9.43
2018-05-18T18:37:44.981Z,10.37
2018-05-18T18:40:47.640Z,9.03
2018-05-18T18:43:50.501Z,9.90
2018-05-18T18:46:53.182Z,8.23
2018-05-18T18:49:56.006Z,8.40
2018-05-18T18:52:58.736Z,9.97
2018-05-18T18:56:01.368Z,9.27
2018-05-18T18:59:04.141Z,9.30
2018-05-18T19:02:07.432Z,9.77
2018-05-18T19:05:10.078Z,9.83
2018-05-18T19:08:12.695Z,11.53
2018-05-18T19:11:15.417Z,9.90
2018-05-18T19:14:18.403Z,10.23
2018-05-18T19:17:21.053Z,9.07
2018-05-18T19:20:23.656Z,10.17
2018-05-18T19:23:26.255Z,9.93
2018-05-18T19:26:28.903Z,9.83
2018-05-18T19:29:31.802Z,9.33
2018-05-18T19:32:34.402Z,9.70
2018-05-18T19:35:37.027Z,9.73
2018-05-18T19:38:39.676Z,10.70
2018-05-18T19:41:42.414Z,12.30
2018-05-18T19:44:45.364Z,11.70
2018-05-18T19:47:49.693Z,10.93
2018-05-18T19:50:52.307Z,9.80
2018-05-18T19:53:54.920Z,8.70
2018-05-18T19:56:57.503Z,10.43
2018-05-18T20:00:00.175Z,11.83
2018-05-18T20:03:02.944Z,10.43
2018-05-18T20:06:05.726Z,9.23
2018-05-18T20:09:09.163Z,10.67
2018-05-18T20:12:12.670Z,8.50
2018-05-18T20:15:15.263Z,9.47
2018-05-18T20:18:18.047Z,9.07
2018-05-18T20:21:21.539Z,10.17
2018-05-18T20:24:24.124Z,9.50
2018-05-18T20:27:26.746Z,10.17
2018-05-18T20:30:30.163Z,10.80
2018-05-18T20:33:32.817Z,9.70
2018-05-18T20:36:35.408Z,8.20
2018-05-18T20:39:38.579Z,9.07
2018-05-18T20:42:41.318Z,9.57
2018-05-18T20:45:43.972Z,9.33
2018-05-18T20:48:46.656Z,10.10
2018-05-18T20:51:50.114Z,10.73
2018-05-18T20:54:52.649Z,10.03
2018-05-18T20:57:56.006Z,9.73
2018-05-18T21:00:58.616Z,11.30
2018-05-18T21:04:01.538Z,10.07
2018-05-18T21:07:04.133Z,9.37
2018-05-18T21:10:07.011Z,10.10
2018-05-18T21:13:09.624Z,10.23
2018-05-18T21:16:12.259Z,10.70
2018-05-18T21:19:15.610Z,8.57
2018-05-18T21:22:18.258Z,9.90
2018-05-18T21:25:20.869Z,15.47
2018-05-18T21:28:23.491Z,8.17
2018-05-18T21:31:26.144Z,8.70
2018-05-18T21:34:29.652Z,8.07
2018-05-18T21:37:33.463Z,8.70
2018-05-18T21:40:36.039Z,9.50
2018-05-18T21:43:38.653Z,8.33
2018-05-18T21:46:41.265Z,9.60
2018-05-18T21:49:43.850Z,9.50
2018-05-18T21:52:46.645Z,9.10
2018-05-18T21:55:49.436Z,7.93
2018-05-18T21:58:52.103Z,8.90
2018-05-18T22:01:54.699Z,13.97
2018-05-18T22:04:57.467Z,8.70
2018-05-18T22:08:00.156Z,9.93
2018-05-18T22:11:02.758Z,11.50
2018-05-18T22:14:05.393Z,8.57
2018-05-18T22:17:07.962Z,9.63
2018-05-18T22:20:10.600Z,11.30
2018-05-18T22:23:13.263Z,10.23
2018-05-18T22:26:15.898Z,9.03
2018-05-18T22:29:18.624Z,9.20
2018-05-18T22:32:22.011Z,9.10
2018-05-18T22:35:24.615Z,8.93
2018-05-18T22:38:27.253Z,8.60
2018-05-18T22:41:31.637Z,10.23
2018-05-18T22:44:34.247Z,8.97
2018-05-18T22:47:36.846Z,9.17
2018-05-18T22:50:39.487Z,10.40
2018-05-18T22:53:42.099Z,25.80
2018-05-18T22:56:44.699Z,25.70
2018-05-18T22:59:47.347Z,16.13
2018-05-18T23:02:50.214Z,9.57
2018-05-18T23:05:52.806Z,17.53
2018-05-18T23:08:55.449Z,21.63
2018-05-18T23:11:58.038Z,12.60
2018-05-18T23:15:01.406Z,14.10
2018-05-18T23:18:04.056Z,11.80
2018-05-18T23:21:06.658Z,9.90
2018-05-18T23:24:09.244Z,8.87
2018-05-18T23:27:11.833Z,11.87
2018-05-18T23:30:14.563Z,11.17
2018-05-18T23:33:17.326Z,10.70
2018-05-18T23:36:19.909Z,9.87
2018-05-18T23:39:23.246Z,9.17
2018-05-18T23:42:25.859Z,10.43
2018-05-18T23:45:28.432Z,10.43
2018-05-18T23:48:31.059Z,14.00
2018-05-18T23:51:33.760Z,9.63
2018-05-18T23:54:36.652Z,10.67
2018-05-18T23:57:39.255Z,10.20
